sensor_id;sensor_type;location;lat;lon;timestamp;P1;durP1;ratioP1;P2;durP2;ratioP2
32297;SDS011;18782;48.984;8.548;2023-05-10T00:01:20;0.90;;;0.43;;
32297;SDS011;18782;48.984;8.548;2023-05-10T00:03:48;0.35;;;0.20;;
32297;SDS011;18782;48.984;8.548;2023-05-10T00:06:15;0.57;;;0.30;;
32297;SDS011;18782;48.984;8.548;2023-05-10T00:08:43;0.43;;;0.13;;
32297;SDS011;18782;48.984;8.548;2023-05-10T00:11:12;0.50;;;0.20;;
32297;SDS011;18782;48.984;8.548;2023-05-10T00:13:39;0.55;;;0.20;;
32297;SDS011;18782;48.984;8.548;2023-05-10T00:16:08;0.38;;;0.10;;
32297;SDS011;18782;48.984;8.548;2023-05-10T00:18:36;0.30;;;0.20;;
32297;SDS011;18782;48.984;8.548;2023-05-10T00:21:04;0.28;;;0.20;;
32297;SDS011;18782;48.984;8.548;2023-05-10T00:23:32;0.45;;;0.20;;
32297;SDS011;18782;48.984;8.548;2023-05-10T00:25:59;0.10;;;0.10;;
32297;SDS011;18782;48.984;8.548;2023-05-10T00:28:27;0.17;;;0.10;;
32297;SDS011;18782;48.984;8.548;2023-05-10T00:30:55;0.20;;;0.20;;
32297;SDS011;18782;48.984;8.548;2023-05-10T00:33:24;0.32;;;0.28;;
32297;SDS011;18782;48.984;8.548;2023-05-10T00:35:52;0.38;;;0.20;;
32297;SDS011;18782;48.984;8.548;2023-05-10T00:38:19;0.45;;;0.30;;
32297;SDS011;18782;48.984;8.548;2023-05-10T00:40:47;0.30;;;0.20;;
32297;SDS011;18782;48.984;8.548;2023-05-10T00:43:22;0.38;;;0.20;;
32297;SDS011;18782;48.984;8.548;2023-05-10T00:45:50;1.38;;;0.30;;
32297;SDS011;18782;48.984;8.548;2023-05-10T00:48:18;1.95;;;0.30;;
32297;SDS011;18782;48.984;8.548;2023-05-10T00:50:47;2.42;;;0.40;;
32297;SDS011;18782;48.984;8.548;2023-05-10T00:53:15;0.60;;;0.30;;
32297;SDS011;18782;48.984;8.548;2023-05-10T00:55:44;0.40;;;0.40;;
32297;SDS011;18782;48.984;8.548;2023-05-10T00:58:12;0.88;;;0.20;;
32297;SDS011;18782;48.984;8.548;2023-05-10T01:00:40;0.70;;;0.30;;
32297;SDS011;18782;48.984;8.548;2023-05-10T01:03:09;0.45;;;0.30;;
32297;SDS011;18782;48.984;8.548;2023-05-10T01:05:37;1.67;;;0.50;;
32297;SDS011;18782;48.984;8.548;2023-05-10T01:08:06;0.50;;;0.38;;
32297;SDS011;18782;48.984;8.548;2023-05-10T01:10:34;0.80;;;0.40;;
32297;SDS011;18782;48.984;8.548;2023-05-10T01:13:02;1.02;;;0.40;;
32297;SDS011;18782;48.984;8.548;2023-05-10T01:15:30;0.50;;;0.38;;
32297;SDS011;18782;48.984;8.548;2023-05-10T01:17:59;0.73;;;0.45;;
32297;SDS011;18782;48.984;8.548;2023-05-10T01:20:28;1.55;;;0.60;;
32297;SDS011;18782;48.984;8.548;2023-05-10T01:26:07;1.92;;;0.60;;
32297;SDS011;18782;48.984;8.548;2023-05-10T01:29:09;1.00;;;0.50;;
32297;SDS011;18782;48.984;8.548;2023-05-10T01:34:44;1.27;;;0.70;;
32297;SDS011;18782;48.984;8.548;2023-05-10T01:37:20;1.25;;;0.38;;
32297;SDS011;18782;48.984;8.548;2023-05-10T01:39:55;3.22;;;0.73;;
32297;SDS011;18782;48.984;8.548;2023-05-10T01:42:29;0.98;;;0.60;;
32297;SDS011;18782;48.984;8.548;2023-05-10T01:45:02;1.33;;;0.55;;
32297;SDS011;18782;48.984;8.548;2023-05-10T01:47:40;1.00;;;0.40;;
32297;SDS011;18782;48.984;8.548;2023-05-10T01:50:15;0.85;;;0.50;;
32297;SDS011;18782;48.984;8.548;2023-05-10T01:52:49;1.00;;;0.60;;
32297;SDS011;18782;48.984;8.548;2023-05-10T01:55:20;1.23;;;0.40;;
32297;SDS011;18782;48.984;8.548;2023-05-10T01:57:52;1.10;;;0.77;;
32297;SDS011;18782;48.984;8.548;2023-05-10T02:00:26;1.50;;;1.13;;
32297;SDS011;18782;48.984;8.548;2023-05-10T02:02:57;1.08;;;0.80;;
32297;SDS011;18782;48.984;8.548;2023-05-10T02:05:27;2.13;;;0.70;;
32297;SDS011;18782;48.984;8.548;2023-05-10T02:07:56;1.90;;;1.23;;
32297;SDS011;18782;48.984;8.548;2023-05-10T02:10:27;1.00;;;0.70;;
32297;SDS011;18782;48.984;8.548;2023-05-10T02:12:55;1.27;;;1.17;;
32297;SDS011;18782;48.984;8.548;2023-05-10T02:15:26;1.15;;;0.98;;
32297;SDS011;18782;48.984;8.548;2023-05-10T02:17:57;1.70;;;1.40;;
32297;SDS011;18782;48.984;8.548;2023-05-10T02:20:27;2.05;;;1.30;;
32297;SDS011;18782;48.984;8.548;2023-05-10T02:22:55;0.82;;;0.80;;
32297;SDS011;18782;48.984;8.548;2023-05-10T02:25:24;1.80;;;1.20;;
32297;SDS011;18782;48.984;8.548;2023-05-10T02:27:54;1.58;;;1.27;;
32297;SDS011;18782;48.984;8.548;2023-05-10T02:30:24;1.85;;;1.20;;
32297;SDS011;18782;48.984;8.548;2023-05-10T02:41:18;2.65;;;1.20;;
32297;SDS011;18782;48.984;8.548;2023-05-10T02:43:49;1.48;;;1.17;;
32297;SDS011;18782;48.984;8.548;2023-05-10T02:46:17;2.00;;;1.63;;
32297;SDS011;18782;48.984;8.548;2023-05-10T02:48:45;5.43;;;1.60;;
32297;SDS011;18782;48.984;8.548;2023-05-10T02:51:13;2.30;;;1.35;;
32297;SDS011;18782;48.984;8.548;2023-05-10T02:53:44;1.80;;;1.17;;
32297;SDS011;18782;48.984;8.548;2023-05-10T02:56:15;1.90;;;1.70;;
32297;SDS011;18782;48.984;8.548;2023-05-10T02:58:52;1.88;;;1.17;;
32297;SDS011;18782;48.984;8.548;2023-05-10T03:01:19;5.45;;;2.15;;
32297;SDS011;18782;48.984;8.548;2023-05-10T03:03:47;3.97;;;1.80;;
32297;SDS011;18782;48.984;8.548;2023-05-10T03:06:15;1.65;;;1.20;;
32297;SDS011;18782;48.984;8.548;2023-05-10T03:08:43;2.30;;;1.42;;
32297;SDS011;18782;48.984;8.548;2023-05-10T03:11:16;3.85;;;1.55;;
32297;SDS011;18782;48.984;8.548;2023-05-10T03:14:04;2.20;;;1.52;;
32297;SDS011;18782;48.984;8.548;2023-05-10T03:16:42;1.67;;;1.40;;
32297;SDS011;18782;48.984;8.548;2023-05-10T03:19:16;2.78;;;1.42;;
32297;SDS011;18782;48.984;8.548;2023-05-10T03:21:49;2.10;;;1.38;;
32297;SDS011;18782;48.984;8.548;2023-05-10T03:24:20;1.27;;;1.10;;
32297;SDS011;18782;48.984;8.548;2023-05-10T03:26:50;2.10;;;1.73;;
32297;SDS011;18782;48.984;8.548;2023-05-10T03:29:22;1.40;;;1.30;;
32297;SDS011;18782;48.984;8.548;2023-05-10T03:31:52;2.38;;;1.58;;
32297;SDS011;18782;48.984;8.548;2023-05-10T03:34:23;1.60;;;1.45;;
32297;SDS011;18782;48.984;8.548;2023-05-10T03:36:51;2.03;;;1.10;;
32297;SDS011;18782;48.984;8.548;2023-05-10T03:39:19;1.58;;;1.30;;
32297;SDS011;18782;48.984;8.548;2023-05-10T03:41:53;2.00;;;1.55;;
32297;SDS011;18782;48.984;8.548;2023-05-10T03:44:21;3.03;;;1.65;;
32297;SDS011;18782;48.984;8.548;2023-05-10T03:46:48;2.63;;;1.80;;
32297;SDS011;18782;48.984;8.548;2023-05-10T03:49:16;2.70;;;1.42;;
32297;SDS011;18782;48.984;8.548;2023-05-10T03:51:44;2.67;;;1.70;;
32297;SDS011;18782;48.984;8.548;2023-05-10T03:54:11;2.60;;;1.80;;
32297;SDS011;18782;48.984;8.548;2023-05-10T03:56:40;2.25;;;1.35;;
32297;SDS011;18782;48.984;8.548;2023-05-10T03:59:09;2.22;;;1.73;;
32297;SDS011;18782;48.984;8.548;2023-05-10T04:01:36;2.92;;;1.20;;
32297;SDS011;18782;48.984;8.548;2023-05-10T04:04:04;2.72;;;1.45;;
32297;SDS011;18782;48.984;8.548;2023-05-10T04:06:32;4.38;;;1.40;;
32297;SDS011;18782;48.984;8.548;2023-05-10T04:09:00;3.17;;;1.25;;
32297;SDS011;18782;48.984;8.548;2023-05-10T04:11:30;1.20;;;1.02;;
32297;SDS011;18782;48.984;8.548;2023-05-10T04:13:58;2.50;;;1.15;;
32297;SDS011;18782;48.984;8.548;2023-05-10T04:16:27;1.30;;;1.00;;
32297;SDS011;18782;48.984;8.548;2023-05-10T04:18:54;1.85;;;1.20;;
32297;SDS011;18782;48.984;8.548;2023-05-10T04:21:22;2.63;;;0.90;;
32297;SDS011;18782;48.984;8.548;2023-05-10T04:23:50;1.52;;;0.82;;
32297;SDS011;18782;48.984;8.548;2023-05-10T04:26:17;1.63;;;1.05;;
32297;SDS011;18782;48.984;8.548;2023-05-10T04:28:45;1.05;;;0.90;;
32297;SDS011;18782;48.984;8.548;2023-05-10T04:31:12;1.52;;;1.05;;
32297;SDS011;18782;48.984;8.548;2023-05-10T04:33:42;1.45;;;1.00;;
32297;SDS011;18782;48.984;8.548;2023-05-10T04:36:10;1.00;;;0.80;;
32297;SDS011;18782;48.984;8.548;2023-05-10T04:38:37;0.85;;;0.70;;
32297;SDS011;18782;48.984;8.548;2023-05-10T04:41:05;2.22;;;1.10;;
32297;SDS011;18782;48.984;8.548;2023-05-10T04:43:33;2.08;;;1.10;;
32297;SDS011;18782;48.984;8.548;2023-05-10T04:46:02;2.00;;;1.30;;
32297;SDS011;18782;48.984;8.548;2023-05-10T04:48:30;3.97;;;1.95;;
32297;SDS011;18782;48.984;8.548;2023-05-10T04:50:59;2.80;;;2.08;;
32297;SDS011;18782;48.984;8.548;2023-05-10T04:53:26;2.25;;;1.10;;
32297;SDS011;18782;48.984;8.548;2023-05-10T04:55:54;1.70;;;0.85;;
32297;SDS011;18782;48.984;8.548;2023-05-10T04:58:22;1.35;;;1.00;;
32297;SDS011;18782;48.984;8.548;2023-05-10T05:00:49;3.28;;;1.23;;
32297;SDS011;18782;48.984;8.548;2023-05-10T05:03:17;1.83;;;1.50;;
32297;SDS011;18782;48.984;8.548;2023-05-10T05:05:45;2.65;;;1.27;;
32297;SDS011;18782;48.984;8.548;2023-05-10T05:08:14;2.60;;;1.65;;
32297;SDS011;18782;48.984;8.548;2023-05-10T05:10:41;3.13;;;1.60;;
32297;SDS011;18782;48.984;8.548;2023-05-10T05:13:09;3.05;;;1.30;;
32297;SDS011;18782;48.984;8.548;2023-05-10T05:15:36;2.35;;;1.40;;
32297;SDS011;18782;48.984;8.548;2023-05-10T05:18:04;1.67;;;1.10;;
32297;SDS011;18782;48.984;8.548;2023-05-10T05:20:32;2.05;;;1.40;;
32297;SDS011;18782;48.984;8.548;2023-05-10T05:23:00;1.77;;;1.40;;
32297;SDS011;18782;48.984;8.548;2023-05-10T05:25:28;5.15;;;2.70;;
32297;SDS011;18782;48.984;8.548;2023-05-10T05:27:56;2.53;;;1.73;;
32297;SDS011;18782;48.984;8.548;2023-05-10T05:30:24;2.80;;;1.67;;
32297;SDS011;18782;48.984;8.548;2023-05-10T05:32:51;3.90;;;1.40;;
32297;SDS011;18782;48.984;8.548;2023-05-10T05:35:19;1.98;;;1.27;;
32297;SDS011;18782;48.984;8.548;2023-05-10T05:37:47;2.28;;;1.25;;
32297;SDS011;18782;48.984;8.548;2023-05-10T05:40:14;2.33;;;0.85;;
32297;SDS011;18782;48.984;8.548;2023-05-10T05:42:43;2.90;;;2.42;;
32297;SDS011;18782;48.984;8.548;2023-05-10T05:45:11;1.90;;;1.05;;
32297;SDS011;18782;48.984;8.548;2023-05-10T05:47:40;1.42;;;0.95;;
32297;SDS011;18782;48.984;8.548;2023-05-10T05:50:08;2.75;;;0.95;;
32297;SDS011;18782;48.984;8.548;2023-05-10T05:52:36;1.20;;;0.80;;
32297;SDS011;18782;48.984;8.548;2023-05-10T05:55:04;2.63;;;1.02;;
32297;SDS011;18782;48.984;8.548;2023-05-10T05:57:32;4.10;;;0.90;;
32297;SDS011;18782;48.984;8.548;2023-05-10T06:00:02;2.30;;;1.00;;
32297;SDS011;18782;48.984;8.548;2023-05-10T06:02:37;2.00;;;0.80;;
32297;SDS011;18782;48.984;8.548;2023-05-10T06:05:06;1.08;;;0.60;;
32297;SDS011;18782;48.984;8.548;2023-05-10T06:07:34;4.20;;;2.92;;
32297;SDS011;18782;48.984;8.548;2023-05-10T06:10:02;3.58;;;0.93;;
32297;SDS011;18782;48.984;8.548;2023-05-10T06:12:30;1.48;;;1.08;;
32297;SDS011;18782;48.984;8.548;2023-05-10T06:14:57;4.07;;;0.77;;
32297;SDS011;18782;48.984;8.548;2023-05-10T06:17:26;1.73;;;0.80;;
32297;SDS011;18782;48.984;8.548;2023-05-10T06:19:54;1.38;;;0.82;;
32297;SDS011;18782;48.984;8.548;2023-05-10T06:22:22;2.15;;;0.82;;
32297;SDS011;18782;48.984;8.548;2023-05-10T06:24:50;7.13;;;0.88;;
32297;SDS011;18782;48.984;8.548;2023-05-10T06:27:17;1.40;;;0.90;;
32297;SDS011;18782;48.984;8.548;2023-05-10T06:29:45;1.17;;;0.90;;
32297;SDS011;18782;48.984;8.548;2023-05-10T06:32:15;1.33;;;0.77;;
32297;SDS011;18782;48.984;8.548;2023-05-10T06:34:44;1.90;;;0.90;;
32297;SDS011;18782;48.984;8.548;2023-05-10T06:37:12;1.55;;;0.80;;
32297;SDS011;18782;48.984;8.548;2023-05-10T06:39:40;1.30;;;0.90;;
32297;SDS011;18782;48.984;8.548;2023-05-10T06:42:07;1.15;;;0.90;;
32297;SDS011;18782;48.984;8.548;2023-05-10T06:44:35;2.50;;;0.70;;
32297;SDS011;18782;48.984;8.548;2023-05-10T06:47:03;2.00;;;0.90;;
32297;SDS011;18782;48.984;8.548;2023-05-10T06:49:30;1.52;;;0.77;;
32297;SDS011;18782;48.984;8.548;2023-05-10T06:51:59;1.30;;;0.50;;
32297;SDS011;18782;48.984;8.548;2023-05-10T06:54:27;3.05;;;0.70;;
32297;SDS011;18782;48.984;8.548;2023-05-10T06:56:54;1.27;;;0.50;;
32297;SDS011;18782;48.984;8.548;2023-05-10T06:59:22;1.38;;;0.52;;
32297;SDS011;18782;48.984;8.548;2023-05-10T07:01:50;1.00;;;0.45;;
32297;SDS011;18782;48.984;8.548;2023-05-10T07:04:18;0.82;;;0.50;;
32297;SDS011;18782;48.984;8.548;2023-05-10T07:06:45;1.05;;;0.52;;
32297;SDS011;18782;48.984;8.548;2023-05-10T07:09:14;1.45;;;0.52;;
32297;SDS011;18782;48.984;8.548;2023-05-10T07:11:42;0.90;;;0.40;;
32297;SDS011;18782;48.984;8.548;2023-05-10T07:14:09;1.95;;;0.40;;
32297;SDS011;18782;48.984;8.548;2023-05-10T07:16:37;1.50;;;0.30;;
32297;SDS011;18782;48.984;8.548;2023-05-10T07:19:05;1.30;;;0.65;;
32297;SDS011;18782;48.984;8.548;2023-05-10T07:21:32;1.15;;;0.40;;
32297;SDS011;18782;48.984;8.548;2023-05-10T07:24:01;1.55;;;0.40;;
32297;SDS011;18782;48.984;8.548;2023-05-10T07:26:30;1.05;;;0.40;;
32297;SDS011;18782;48.984;8.548;2023-05-10T07:28:58;0.90;;;0.50;;
32297;SDS011;18782;48.984;8.548;2023-05-10T07:31:25;1.60;;;0.65;;
32297;SDS011;18782;48.984;8.548;2023-05-10T07:33:53;2.17;;;0.40;;
32297;SDS011;18782;48.984;8.548;2023-05-10T07:36:20;2.67;;;0.50;;
32297;SDS011;18782;48.984;8.548;2023-05-10T07:38:48;2.40;;;0.50;;
32297;SDS011;18782;48.984;8.548;2023-05-10T07:41:16;3.65;;;0.32;;
32297;SDS011;18782;48.984;8.548;2023-05-10T07:43:45;0.70;;;0.20;;
32297;SDS011;18782;48.984;8.548;2023-05-10T07:46:13;0.40;;;0.20;;
32297;SDS011;18782;48.984;8.548;2023-05-10T07:48:40;0.50;;;0.30;;
32297;SDS011;18782;48.984;8.548;2023-05-10T07:51:08;3.15;;;0.47;;
32297;SDS011;18782;48.984;8.548;2023-05-10T07:53:36;1.83;;;0.40;;
32297;SDS011;18782;48.984;8.548;2023-05-10T07:56:19;1.52;;;0.30;;
32297;SDS011;18782;48.984;8.548;2023-05-10T07:58:49;2.20;;;0.30;;
32297;SDS011;18782;48.984;8.548;2023-05-10T08:01:17;0.80;;;0.32;;
32297;SDS011;18782;48.984;8.548;2023-05-10T08:03:45;0.60;;;0.32;;
32297;SDS011;18782;48.984;8.548;2023-05-10T08:06:13;0.20;;;0.20;;
32297;SDS011;18782;48.984;8.548;2023-05-10T08:08:41;1.42;;;0.40;;
32297;SDS011;18782;48.984;8.548;2023-05-10T08:11:09;2.70;;;0.28;;
32297;SDS011;18782;48.984;8.548;2023-05-10T08:13:36;1.17;;;0.30;;
32297;SDS011;18782;48.984;8.548;2023-05-10T08:16:05;0.88;;;0.30;;
32297;SDS011;18782;48.984;8.548;2023-05-10T08:18:33;1.95;;;0.20;;
32297;SDS011;18782;48.984;8.548;2023-05-10T08:21:01;0.60;;;0.20;;
32297;SDS011;18782;48.984;8.548;2023-05-10T08:23:28;1.20;;;0.28;;
32297;SDS011;18782;48.984;8.548;2023-05-10T08:25:56;1.10;;;0.22;;
32297;SDS011;18782;48.984;8.548;2023-05-10T08:28:23;0.20;;;0.20;;
32297;SDS011;18782;48.984;8.548;2023-05-10T08:30:51;0.50;;;0.30;;
32297;SDS011;18782;48.984;8.548;2023-05-10T08:33:20;2.28;;;0.30;;
32297;SDS011;18782;48.984;8.548;2023-05-10T08:35:48;0.55;;;0.20;;
32297;SDS011;18782;48.984;8.548;2023-05-10T08:38:15;1.08;;;0.20;;
32297;SDS011;18782;48.984;8.548;2023-05-10T08:40:43;0.60;;;0.20;;
32297;SDS011;18782;48.984;8.548;2023-05-10T08:43:12;0.50;;;0.20;;
32297;SDS011;18782;48.984;8.548;2023-05-10T08:45:42;0.43;;;0.20;;
32297;SDS011;18782;48.984;8.548;2023-05-10T08:48:11;0.95;;;0.20;;
32297;SDS011;18782;48.984;8.548;2023-05-10T08:50:40;2.00;;;1.40;;
32297;SDS011;18782;48.984;8.548;2023-05-10T08:53:09;5.13;;;0.40;;
32297;SDS011;18782;48.984;8.548;2023-05-10T08:55:39;0.93;;;0.40;;
32297;SDS011;18782;48.984;8.548;2023-05-10T08:58:09;1.85;;;0.20;;
32297;SDS011;18782;48.984;8.548;2023-05-10T09:00:36;0.50;;;0.13;;
32297;SDS011;18782;48.984;8.548;2023-05-10T09:03:04;3.00;;;0.20;;
32297;SDS011;18782;48.984;8.548;2023-05-10T09:05:33;1.13;;;0.20;;
32297;SDS011;18782;48.984;8.548;2023-05-10T09:08:02;1.17;;;0.20;;
32297;SDS011;18782;48.984;8.548;2023-05-10T09:10:30;0.40;;;0.20;;
32297;SDS011;18782;48.984;8.548;2023-05-10T09:12:58;1.17;;;0.20;;
32297;SDS011;18782;48.984;8.548;2023-05-10T09:15:26;0.40;;;0.10;;
32297;SDS011;18782;48.984;8.548;2023-05-10T09:17:54;1.85;;;0.20;;
32297;SDS011;18782;48.984;8.548;2023-05-10T09:20:21;1.35;;;0.30;;
32297;SDS011;18782;48.984;8.548;2023-05-10T09:22:49;1.23;;;0.30;;
32297;SDS011;18782;48.984;8.548;2023-05-10T09:25:19;0.47;;;0.20;;
32297;SDS011;18782;48.984;8.548;2023-05-10T09:27:47;1.20;;;0.30;;
32297;SDS011;18782;48.984;8.548;2023-05-10T09:30:15;2.60;;;0.30;;
32297;SDS011;18782;48.984;8.548;2023-05-10T09:32:44;2.20;;;0.32;;
32297;SDS011;18782;48.984;8.548;2023-05-10T09:35:14;1.20;;;0.28;;
32297;SDS011;18782;48.984;8.548;2023-05-10T09:37:45;1.17;;;0.30;;
32297;SDS011;18782;48.984;8.548;2023-05-10T09:40:15;1.52;;;0.20;;
32297;SDS011;18782;48.984;8.548;2023-05-10T09:42:51;1.25;;;0.20;;
32297;SDS011;18782;48.984;8.548;2023-05-10T09:45:20;1.27;;;0.13;;
32297;SDS011;18782;48.984;8.548;2023-05-10T09:47:48;0.57;;;0.30;;
32297;SDS011;18782;48.984;8.548;2023-05-10T09:50:16;1.17;;;0.40;;
32297;SDS011;18782;48.984;8.548;2023-05-10T09:52:47;1.13;;;0.40;;
32297;SDS011;18782;48.984;8.548;2023-05-10T09:55:17;0.60;;;0.20;;
32297;SDS011;18782;48.984;8.548;2023-05-10T09:57:46;2.72;;;0.40;;
32297;SDS011;18782;48.984;8.548;2023-05-10T10:00:17;0.50;;;0.20;;
32297;SDS011;18782;48.984;8.548;2023-05-10T10:02:47;1.33;;;0.50;;
32297;SDS011;18782;48.984;8.548;2023-05-10T10:05:21;0.70;;;0.32;;
32297;SDS011;18782;48.984;8.548;2023-05-10T10:07:55;2.00;;;0.30;;
32297;SDS011;18782;48.984;8.548;2023-05-10T10:10:24;2.50;;;0.90;;
32297;SDS011;18782;48.984;8.548;2023-05-10T10:12:52;1.73;;;0.50;;
32297;SDS011;18782;48.984;8.548;2023-05-10T10:15:22;0.85;;;0.45;;
32297;SDS011;18782;48.984;8.548;2023-05-10T10:17:50;1.33;;;0.30;;
32297;SDS011;18782;48.984;8.548;2023-05-10T10:20:21;1.30;;;0.38;;
32297;SDS011;18782;48.984;8.548;2023-05-10T10:22:50;1.65;;;0.43;;
32297;SDS011;18782;48.984;8.548;2023-05-10T10:25:18;1.95;;;1.00;;
32297;SDS011;18782;48.984;8.548;2023-05-10T10:27:49;1.25;;;0.55;;
32297;SDS011;18782;48.984;8.548;2023-05-10T10:30:28;2.50;;;0.47;;
32297;SDS011;18782;48.984;8.548;2023-05-10T10:35:58;2.85;;;0.45;;
32297;SDS011;18782;48.984;8.548;2023-05-10T10:38:35;1.90;;;0.40;;
32297;SDS011;18782;48.984;8.548;2023-05-10T10:41:08;1.48;;;0.70;;
32297;SDS011;18782;48.984;8.548;2023-05-10T10:43:37;1.30;;;0.60;;
32297;SDS011;18782;48.984;8.548;2023-05-10T10:46:12;3.53;;;0.77;;
32297;SDS011;18782;48.984;8.548;2023-05-10T10:48:41;2.30;;;0.75;;
32297;SDS011;18782;48.984;8.548;2023-05-10T10:51:14;1.00;;;0.50;;
32297;SDS011;18782;48.984;8.548;2023-05-10T10:53:42;1.95;;;0.63;;
32297;SDS011;18782;48.984;8.548;2023-05-10T10:56:10;3.33;;;0.88;;
32297;SDS011;18782;48.984;8.548;2023-05-10T10:58:42;3.05;;;0.98;;
32297;SDS011;18782;48.984;8.548;2023-05-10T11:01:18;3.58;;;0.90;;
32297;SDS011;18782;48.984;8.548;2023-05-10T11:06:46;2.20;;;1.02;;
32297;SDS011;18782;48.984;8.548;2023-05-10T11:09:13;1.60;;;0.80;;
32297;SDS011;18782;48.984;8.548;2023-05-10T11:11:51;1.67;;;0.90;;
32297;SDS011;18782;48.984;8.548;2023-05-10T11:14:21;1.77;;;0.90;;
32297;SDS011;18782;48.984;8.548;2023-05-10T11:16:50;1.83;;;0.90;;
32297;SDS011;18782;48.984;8.548;2023-05-10T11:19:19;2.88;;;0.73;;
32297;SDS011;18782;48.984;8.548;2023-05-10T11:21:47;3.58;;;0.60;;
32297;SDS011;18782;48.984;8.548;2023-05-10T11:24:16;1.80;;;1.20;;
32297;SDS011;18782;48.984;8.548;2023-05-10T11:26:48;1.60;;;1.02;;
32297;SDS011;18782;48.984;8.548;2023-05-10T11:29:17;2.35;;;0.60;;
32297;SDS011;18782;48.984;8.548;2023-05-10T11:31:45;2.70;;;0.60;;
32297;SDS011;18782;48.984;8.548;2023-05-10T11:34:23;0.63;;;0.50;;
32297;SDS011;18782;48.984;8.548;2023-05-10T11:36:52;3.30;;;0.55;;
32297;SDS011;18782;48.984;8.548;2023-05-10T11:39:21;1.40;;;0.55;;
32297;SDS011;18782;48.984;8.548;2023-05-10T11:41:53;2.33;;;0.50;;
32297;SDS011;18782;48.984;8.548;2023-05-10T11:44:21;2.40;;;0.57;;
32297;SDS011;18782;48.984;8.548;2023-05-10T11:46:49;3.03;;;0.60;;
32297;SDS011;18782;48.984;8.548;2023-05-10T11:49:17;1.13;;;0.88;;
32297;SDS011;18782;48.984;8.548;2023-05-10T11:51:46;2.75;;;0.50;;
32297;SDS011;18782;48.984;8.548;2023-05-10T11:54:14;2.08;;;0.40;;
32297;SDS011;18782;48.984;8.548;2023-05-10T11:56:41;2.25;;;0.40;;
32297;SDS011;18782;48.984;8.548;2023-05-10T11:59:09;2.28;;;0.50;;
32297;SDS011;18782;48.984;8.548;2023-05-10T12:01:36;0.70;;;0.32;;
32297;SDS011;18782;48.984;8.548;2023-05-10T12:04:04;2.45;;;0.60;;
32297;SDS011;18782;48.984;8.548;2023-05-10T12:06:33;1.48;;;0.47;;
32297;SDS011;18782;48.984;8.548;2023-05-10T12:09:08;1.52;;;0.40;;
32297;SDS011;18782;48.984;8.548;2023-05-10T12:11:36;2.08;;;0.38;;
32297;SDS011;18782;48.984;8.548;2023-05-10T12:14:09;4.60;;;0.40;;
32297;SDS011;18782;48.984;8.548;2023-05-10T12:16:36;1.50;;;0.30;;
32297;SDS011;18782;48.984;8.548;2023-05-10T12:19:04;0.98;;;0.20;;
32297;SDS011;18782;48.984;8.548;2023-05-10T12:21:32;1.70;;;0.35;;
32297;SDS011;18782;48.984;8.548;2023-05-10T12:24:01;1.02;;;0.30;;
32297;SDS011;18782;48.984;8.548;2023-05-10T12:26:31;2.25;;;0.30;;
32297;SDS011;18782;48.984;8.548;2023-05-10T12:29:11;2.95;;;0.40;;
32297;SDS011;18782;48.984;8.548;2023-05-10T12:31:52;1.63;;;0.30;;
32297;SDS011;18782;48.984;8.548;2023-05-10T12:34:25;0.50;;;0.20;;
32297;SDS011;18782;48.984;8.548;2023-05-10T12:36:53;0.80;;;0.20;;
32297;SDS011;18782;48.984;8.548;2023-05-10T12:39:21;1.45;;;0.20;;
32297;SDS011;18782;48.984;8.548;2023-05-10T12:41:50;1.98;;;0.47;;
32297;SDS011;18782;48.984;8.548;2023-05-10T12:44:17;1.48;;;0.20;;
32297;SDS011;18782;48.984;8.548;2023-05-10T12:46:45;2.08;;;0.20;;
32297;SDS011;18782;48.984;8.548;2023-05-10T12:49:13;1.75;;;0.20;;
32297;SDS011;18782;48.984;8.548;2023-05-10T12:51:41;1.27;;;0.35;;
32297;SDS011;18782;48.984;8.548;2023-05-10T12:54:08;2.58;;;0.25;;
32297;SDS011;18782;48.984;8.548;2023-05-10T12:56:36;0.73;;;0.17;;
32297;SDS011;18782;48.984;8.548;2023-05-10T12:59:05;0.88;;;0.20;;
32297;SDS011;18782;48.984;8.548;2023-05-10T13:01:33;1.98;;;0.15;;
32297;SDS011;18782;48.984;8.548;2023-05-10T13:04:00;0.50;;;0.10;;
32297;SDS011;18782;48.984;8.548;2023-05-10T13:06:28;2.67;;;0.65;;
32297;SDS011;18782;48.984;8.548;2023-05-10T13:08:56;1.25;;;0.43;;
32297;SDS011;18782;48.984;8.548;2023-05-10T13:11:24;0.70;;;0.20;;
32297;SDS011;18782;48.984;8.548;2023-05-10T13:13:52;1.90;;;0.30;;
32297;SDS011;18782;48.984;8.548;2023-05-10T13:16:21;1.33;;;0.20;;
32297;SDS011;18782;48.984;8.548;2023-05-10T13:18:49;1.23;;;0.35;;
32297;SDS011;18782;48.984;8.548;2023-05-10T13:21:16;1.35;;;0.25;;
32297;SDS011;18782;48.984;8.548;2023-05-10T13:23:44;1.10;;;0.30;;
32297;SDS011;18782;48.984;8.548;2023-05-10T13:26:12;1.27;;;0.20;;
32297;SDS011;18782;48.984;8.548;2023-05-10T13:28:40;3.25;;;0.20;;
32297;SDS011;18782;48.984;8.548;2023-05-10T13:31:07;1.75;;;0.20;;
32297;SDS011;18782;48.984;8.548;2023-05-10T13:33:36;2.83;;;0.20;;
32297;SDS011;18782;48.984;8.548;2023-05-10T13:36:04;2.17;;;0.57;;
32297;SDS011;18782;48.984;8.548;2023-05-10T13:38:33;1.23;;;0.32;;
32297;SDS011;18782;48.984;8.548;2023-05-10T13:41:00;0.77;;;0.20;;
32297;SDS011;18782;48.984;8.548;2023-05-10T13:43:28;2.08;;;0.20;;
32297;SDS011;18782;48.984;8.548;2023-05-10T13:45:56;1.02;;;0.30;;
32297;SDS011;18782;48.984;8.548;2023-05-10T13:48:24;0.43;;;0.20;;
32297;SDS011;18782;48.984;8.548;2023-05-10T13:50:53;1.20;;;0.10;;
32297;SDS011;18782;48.984;8.548;2023-05-10T13:53:21;0.90;;;0.35;;
32297;SDS011;18782;48.984;8.548;2023-05-10T13:55:48;1.17;;;0.20;;
32297;SDS011;18782;48.984;8.548;2023-05-10T13:58:16;1.60;;;0.30;;
32297;SDS011;18782;48.984;8.548;2023-05-10T14:00:44;0.80;;;0.47;;
32297;SDS011;18782;48.984;8.548;2023-05-10T14:03:11;1.48;;;0.50;;
32297;SDS011;18782;48.984;8.548;2023-05-10T14:05:39;0.68;;;0.22;;
32297;SDS011;18782;48.984;8.548;2023-05-10T14:08:09;2.30;;;0.60;;
32297;SDS011;18782;48.984;8.548;2023-05-10T14:10:37;2.03;;;1.00;;
32297;SDS011;18782;48.984;8.548;2023-05-10T14:13:04;1.92;;;0.50;;
32297;SDS011;18782;48.984;8.548;2023-05-10T14:15:32;1.45;;;0.30;;
32297;SDS011;18782;48.984;8.548;2023-05-10T14:17:59;0.50;;;0.20;;
32297;SDS011;18782;48.984;8.548;2023-05-10T14:20:27;1.20;;;0.20;;
32297;SDS011;18782;48.984;8.548;2023-05-10T14:22:55;0.57;;;0.30;;
32297;SDS011;18782;48.984;8.548;2023-05-10T14:25:24;2.55;;;0.40;;
32297;SDS011;18782;48.984;8.548;2023-05-10T14:27:52;2.17;;;0.40;;
32297;SDS011;18782;48.984;8.548;2023-05-10T14:30:20;1.15;;;0.30;;
32297;SDS011;18782;48.984;8.548;2023-05-10T14:32:48;1.20;;;0.30;;
32297;SDS011;18782;48.984;8.548;2023-05-10T14:35:16;2.45;;;0.40;;
32297;SDS011;18782;48.984;8.548;2023-05-10T14:37:45;0.95;;;0.45;;
32297;SDS011;18782;48.984;8.548;2023-05-10T14:40:13;2.45;;;0.40;;
32297;SDS011;18782;48.984;8.548;2023-05-10T14:42:43;1.95;;;0.40;;
32297;SDS011;18782;48.984;8.548;2023-05-10T14:45:10;2.47;;;1.10;;
32297;SDS011;18782;48.984;8.548;2023-05-10T14:47:38;2.47;;;0.55;;
32297;SDS011;18782;48.984;8.548;2023-05-10T14:50:06;1.73;;;0.30;;
32297;SDS011;18782;48.984;8.548;2023-05-10T14:52:34;1.90;;;0.30;;
32297;SDS011;18782;48.984;8.548;2023-05-10T14:55:02;0.73;;;0.20;;
32297;SDS011;18782;48.984;8.548;2023-05-10T14:57:30;1.33;;;0.25;;
32297;SDS011;18782;48.984;8.548;2023-05-10T14:59:59;1.02;;;0.20;;
32297;SDS011;18782;48.984;8.548;2023-05-10T15:02:27;0.95;;;0.30;;
32297;SDS011;18782;48.984;8.548;2023-05-10T15:04:56;4.70;;;0.30;;
32297;SDS011;18782;48.984;8.548;2023-05-10T15:07:25;1.15;;;0.15;;
32297;SDS011;18782;48.984;8.548;2023-05-10T15:09:52;1.60;;;0.52;;
32297;SDS011;18782;48.984;8.548;2023-05-10T15:12:20;0.95;;;0.20;;
32297;SDS011;18782;48.984;8.548;2023-05-10T15:14:47;0.35;;;0.17;;
32297;SDS011;18782;48.984;8.548;2023-05-10T15:17:16;0.22;;;0.10;;
32297;SDS011;18782;48.984;8.548;2023-05-10T15:19:44;1.00;;;0.17;;